Fort Nelson Airport, British Columbia

Past 24 Hour Conditions

This table is a summary of hourly weather conditions for the past 24 hours. This summary includes the following parameters: temperature, humidity, dew point, wind speed and direction, air pressure, visibility and/or wind chill and humidex.
Date / Time
(PDT)
Conditions Temp (°F) Humidity (%) Dew Point (°F) Wind (mph) Pressure (inches) Vis (mi) Wind Chill
17 April 2014
00:00 Clear 28 37 5 ESE 7 30.0 15 21
16 April 2014
23:00 Clear 29 36 5 E 11 30.0 15 20
22:00 Clear 31 34 6 E 10 gust 20 30.0 15 22
21:00 Clear 34 32 7 E 13 30.0 30 *
20:00 Sunny 35 35 10 E 10 gust 18 30.0 30 *
19:00 Sunny 39 30 10 E 12 gust 20 30.0 30 *
18:00 Sunny 40 31 12 E 14 30.1 30 *
17:00 Sunny 41   32 13 E 12 gust 24 30.1 30 *
16:00 Sunny 40 34 14 ESE 15 gust 23 30.1 30 *
15:00 Mainly Sunny 40 39 17 E 18 30.1 30 *
14:00 Mainly Sunny 39 42 18 E 13 30.2 30 *
13:00 Mainly Sunny 38 47 20 E 13 gust 19 30.2 30 *
12:00 Mainly Sunny 37 49 19 E 14 30.2 30 *
11:00 Mainly Sunny 35 53 19 E 10 30.2 30 *
10:00 Mainly Sunny 31 52 15 ESE 7 30.2 30 24
9:00 Mainly Sunny 27 53 12 ESE 6 30.2 30 20
8:00 Sunny 24 57 11 ESE 4 30.2 30 19
7:00 Sunny 23   54 8 SE 7 30.3 30 15
6:00 Sunny 23   54 8 SE 5 30.3 30 15
5:00 Clear 24 54 10 SE 5 30.3 15 18
4:00 Clear 25 54 10 SE 4 30.3 15 19
3:00 Clear 26 55 12 ESE 6 30.3 15 19
2:00 Clear 27 54 13 ESE 5 30.3 15 22
1:00 Clear 29 54 14 ESE 5 30.3 15 23
00:00 Clear 30 52 14 ESE 6 30.3 15 23
N/A
Not available
 ↑ 
Highest temperature
 ↓ 
Lowest temperature
*
Value not significant.

If you require additional historical weather information, please visit Climate Data Online.